Time;durP1;ratioP1;P1;durP2;ratioP2;P2;SDS_P1;SDS_P2;PMS_P1;PMS_P2;Temp;Humidity;BMP_temperature;BMP_pressure;BME280_temperature;BME280_humidity;BME280_pressure;Samples;Min_cycle;Max_cycle;Signal;HPM_P1;HPM_P2
2022/10/21 19:19:21;;;;;;;8.70;3.80;;;;;;;23.78;45.89;100034.13;4458295;31;956489;-90
2022/10/21 19:21:48;;;;;;;11.00;4.40;;;;;;;23.78;45.89;100034.13;4480483;32;20414;-76
2022/10/21 19:24:13;;;;;;;8.07;4.20;;;;;;;23.32;46.13;100042.59;4481125;32;20096;-74
2022/10/21 19:26:41;;;;;;;6.35;4.00;;;;;;;23.37;46.39;100051.25;4475411;32;20405;-84
2022/10/21 19:29:14;;;;;;;7.95;3.95;;;;;;;23.43;46.50;100040.72;4452113;32;20135;-88
2022/10/21 19:31:42;;;;;;;9.02;4.45;;;;;;;23.53;48.21;100043.19;4452376;32;20152;-82
2022/10/21 19:34:15;;;;;;;6.68;4.15;;;;;;;23.61;46.41;100043.94;4472315;32;20088;-81
2022/10/21 19:36:41;;;;;;;5.50;3.45;;;;;;;23.69;45.16;100038.59;4480406;32;20085;-81
2022/10/21 19:39:07;;;;;;;10.50;4.50;;;;;;;23.75;45.40;100036.78;4467084;32;20124;-82
2022/10/21 19:41:32;;;;;;;8.73;3.80;;;;;;;23.80;44.75;100037.59;4467607;32;20123;-81
2022/10/21 19:43:58;;;;;;;5.68;3.83;;;;;;;23.83;44.74;100036.69;4467249;32;20088;-83
2022/10/21 19:46:26;;;;;;;5.95;3.62;;;;;;;23.91;44.47;100029.56;4467291;32;20084;-81
2022/10/21 19:49:11;;;;;;;11.02;4.37;;;;;;;23.95;44.50;100019.87;4481752;32;20093;-86
2022/10/21 19:51:41;;;;;;;5.32;3.65;;;;;;;23.99;44.19;100025.03;4466989;32;20108;-85
2022/10/21 19:54:09;;;;;;;6.47;3.72;;;;;;;23.95;44.12;100023.34;4480373;32;20104;-90
2022/10/21 19:56:34;;;;;;;6.00;3.65;;;;;;;23.94;43.98;100013.78;4463565;32;20088;-86
2022/10/21 19:59:01;;;;;;;9.52;3.80;;;;;;;23.93;44.00;100014.66;4466049;32;20127;-90
2022/10/21 20:01:27;;;;;;;6.82;3.80;;;;;;;23.91;44.00;100016.47;4467396;32;20096;-87
2022/10/21 20:03:53;;;;;;;8.48;4.10;;;;;;;23.94;43.99;100016.41;4481563;32;20504;-82
2022/10/21 20:06:21;;;;;;;14.77;3.58;;;;;;;23.96;44.06;100016.34;4480921;32;20104;-88
2022/10/21 20:08:47;;;;;;;6.60;3.80;;;;;;;23.98;44.08;100020.69;4481571;32;20092;-69
2022/10/21 20:11:14;;;;;;;8.57;4.65;;;;;;;24.01;44.21;100017.13;4481600;32;20119;-78
2022/10/21 20:13:40;;;;;;;6.55;3.92;;;;;;;24.01;45.42;100010.16;4481871;32;20093;-81
2022/10/21 20:16:06;;;;;;;7.35;4.22;;;;;;;23.97;44.19;100002.38;4457012;32;20069;-81
2022/10/21 20:18:32;;;;;;;11.38;4.35;;;;;;;23.90;44.31;100008.59;4469631;32;20146;-80
2022/10/21 20:20:57;;;;;;;14.10;6.95;;;;;;;23.82;44.36;100008.72;4480959;32;20088;-81
2022/10/21 20:23:23;;;;;;;7.25;5.35;;;;;;;23.73;42.80;100015.00;4464119;32;20093;-80
2022/10/21 20:25:51;;;;;;;9.93;4.62;;;;;;;23.62;44.29;100014.28;4468661;32;20438;-80
2022/10/21 20:28:17;;;;;;;9.27;5.40;;;;;;;23.60;44.37;100023.91;4481555;32;20108;-80
2022/10/21 20:30:43;;;;;;;10.57;5.78;;;;;;;23.56;44.23;100024.81;4471278;32;20137;-80
2022/10/21 20:33:08;;;;;;;8.73;6.00;;;;;;;23.52;44.42;100029.25;4471088;32;20428;-80
2022/10/21 20:35:41;;;;;;;12.90;6.05;;;;;;;23.52;44.43;100044.09;4456189;32;20141;-80
2022/10/21 20:38:07;;;;;;;9.82;5.95;;;;;;;23.50;44.32;100035.41;4470036;32;20143;-80
2022/10/21 20:40:33;;;;;;;10.73;6.80;;;;;;;23.48;44.36;100034.53;4450084;32;20476;-80
2022/10/21 20:43:01;;;;;;;9.60;5.78;;;;;;;23.43;44.41;100027.63;4469949;32;20137;-80
2022/10/21 20:45:28;;;;;;;12.57;6.07;;;;;;;23.44;44.51;100020.66;4471120;32;20089;-80
2022/10/21 20:47:53;;;;;;;10.73;7.12;;;;;;;23.44;44.42;100018.03;4467357;32;20120;-80
2022/10/21 20:50:19;;;;;;;8.75;6.28;;;;;;;23.38;44.29;100021.59;4462553;32;20093;-80
2022/10/21 20:52:44;;;;;;;12.18;6.72;;;;;;;23.39;44.40;100015.47;4460139;32;20113;-80
2022/10/21 20:55:10;;;;;;;13.02;7.10;;;;;;;23.38;44.35;100015.47;4470853;32;20102;-80
2022/10/21 20:57:38;;;;;;;18.73;7.50;;;;;;;23.36;44.38;100018.12;4468809;32;20191;-80
2022/10/21 21:00:04;;;;;;;15.05;7.72;;;;;;;23.31;43.21;100017.34;4467606;32;20463;-80
2022/10/21 21:02:29;;;;;;;16.10;7.60;;;;;;;23.25;43.28;100020.03;4455726;32;20108;-80
2022/10/21 21:04:55;;;;;;;11.38;8.10;;;;;;;23.20;44.01;100020.09;4454606;32;20077;-80
2022/10/21 21:07:20;;;;;;;10.98;7.22;;;;;;;23.19;44.22;100030.56;4468373;32;20117;-81
2022/10/21 21:09:46;;;;;;;13.95;7.20;;;;;;;23.21;44.32;100020.97;4467102;32;20093;-81
2022/10/21 21:12:11;;;;;;;11.25;7.60;;;;;;;23.20;44.35;100027.94;4471011;32;20077;-80
2022/10/21 21:14:38;;;;;;;11.77;7.28;;;;;;;23.21;43.94;100031.44;4470987;32;20359;-80
2022/10/21 21:17:04;;;;;;;11.10;7.20;;;;;;;23.21;44.20;100034.03;4470703;32;20085;-79
2022/10/21 21:19:29;;;;;;;16.27;7.32;;;;;;;23.22;44.28;100025.28;4471090;32;20123;-80
2022/10/21 21:21:55;;;;;;;12.35;6.95;;;;;;;23.22;44.26;100017.44;4456856;32;20097;-80
2022/10/21 21:24:21;;;;;;;10.10;6.87;;;;;;;23.19;44.13;100009.66;4456193;32;20084;-80
2022/10/21 21:26:46;;;;;;;15.95;7.57;;;;;;;23.17;44.04;100011.41;4461874;32;20132;-80
2022/10/21 21:29:12;;;;;;;11.55;7.20;;;;;;;23.20;44.06;100008.78;4456016;32;20134;-80
2022/10/21 21:31:38;;;;;;;9.82;6.90;;;;;;;23.21;44.12;100005.25;4455778;32;20108;-80
2022/10/21 21:34:05;;;;;;;13.07;7.07;;;;;;;23.21;44.15;99997.41;4442780;32;20122;-80
2022/10/21 21:36:30;;;;;;;11.07;6.85;;;;;;;23.18;44.02;99989.59;4456361;32;20105;-80
2022/10/21 21:38:56;;;;;;;11.25;6.82;;;;;;;23.16;44.17;99981.75;4456640;32;20168;-80
2022/10/21 21:41:23;;;;;;;12.80;6.97;;;;;;;23.17;44.19;99985.25;4469785;32;20102;-80
2022/10/21 21:43:50;;;;;;;11.88;7.15;;;;;;;23.14;44.03;99993.13;4456243;32;20214;-80
2022/10/21 21:46:21;;;;;;;13.07;6.70;;;;;;;23.13;44.17;99986.19;4456396;32;20105;-80
2022/10/21 21:48:54;;;;;;;10.18;6.78;;;;;;;23.11;44.17;99980.97;4456948;32;20092;-80
2022/10/21 21:51:21;;;;;;;12.83;7.20;;;;;;;23.11;44.24;99987.94;4452202;32;20084;-80
2022/10/21 21:53:47;;;;;;;11.18;6.32;;;;;;;23.11;44.21;100001.91;4454937;32;20233;-80
2022/10/21 21:56:12;;;;;;;14.10;7.05;;;;;;;23.11;44.17;100006.28;4440708;32;20109;-80
2022/10/21 21:58:38;;;;;;;13.98;6.95;;;;;;;23.09;44.06;99997.56;4454587;32;20089;-80
2022/10/21 22:01:12;;;;;;;11.10;7.18;;;;;;;23.09;44.20;99987.09;4461378;32;20100;-80
2022/10/21 22:03:38;;;;;;;12.35;6.93;;;;;;;23.06;43.97;99974.06;4466598;32;20105;-81
2022/10/21 22:06:04;;;;;;;11.20;6.40;;;;;;;23.04;44.02;99962.75;4470741;32;20101;-80
2022/10/21 22:08:30;;;;;;;9.73;6.45;;;;;;;23.04;44.15;99950.56;4456292;32;20113;-80
2022/10/21 22:10:56;;;;;;;17.10;6.97;;;;;;;23.04;44.15;99949.66;4470192;32;20080;-80
2022/10/21 22:13:21;;;;;;;11.07;6.65;;;;;;;23.03;44.18;99955.78;4470147;32;20102;-80
2022/10/21 22:15:47;;;;;;;11.48;7.25;;;;;;;23.03;44.10;99961.88;4469526;32;20146;-80
2022/10/21 22:18:13;;;;;;;11.85;7.43;;;;;;;23.04;44.13;99978.44;4465372;32;20111;-80
2022/10/21 22:20:39;;;;;;;9.52;6.40;;;;;;;23.03;44.00;99976.72;4468830;32;20443;-80
2022/10/21 22:23:05;;;;;;;10.48;6.60;;;;;;;23.02;44.11;99985.47;4458323;32;20089;-80
2022/10/21 22:25:30;;;;;;;9.63;6.50;;;;;;;23.00;44.12;99978.50;4462499;32;20089;-80
2022/10/21 22:27:56;;;;;;;10.77;6.72;;;;;;;22.99;44.03;99968.94;4462044;32;20381;-80
2022/10/21 22:30:21;;;;;;;11.52;6.05;;;;;;;22.99;44.06;99986.37;4461872;32;20084;-80
2022/10/21 22:32:47;;;;;;;11.55;6.60;;;;;;;22.98;43.99;99982.88;4448340;32;20110;-80
2022/10/21 22:35:12;;;;;;;9.75;6.70;;;;;;;22.97;44.00;99998.59;4462708;32;20145;-80
2022/10/21 22:37:38;;;;;;;11.70;6.12;;;;;;;22.96;44.07;99992.53;4460356;32;20093;-80
2022/10/21 22:40:05;;;;;;;11.98;7.00;;;;;;;22.98;44.07;99993.34;4462016;32;20123;-80
2022/10/21 22:42:30;;;;;;;12.55;6.32;;;;;;;22.98;44.11;99989.88;4448302;32;20085;-80
2022/10/21 22:44:56;;;;;;;9.65;6.07;;;;;;;22.96;44.08;99992.53;4459021;32;20525;-80
2022/10/21 22:47:22;;;;;;;10.52;5.85;;;;;;;22.96;44.07;99987.28;4460348;32;20115;-80
2022/10/21 22:49:48;;;;;;;10.23;6.47;;;;;;;22.96;44.02;99987.28;4461135;32;20129;-80
2022/10/21 22:52:14;;;;;;;9.13;5.95;;;;;;;22.96;44.01;99973.28;4444502;32;20069;-80
2022/10/21 22:54:39;;;;;;;10.23;6.43;;;;;;;22.94;43.97;99969.84;4459261;32;20115;-80
2022/10/21 22:57:05;;;;;;;8.57;6.15;;;;;;;22.94;43.97;99970.72;4469953;32;20375;-80
2022/10/21 22:59:30;;;;;;;10.00;6.25;;;;;;;22.91;43.84;99968.13;4455575;32;20415;-80
2022/10/21 23:01:56;;;;;;;8.48;5.87;;;;;;;22.91;43.99;99968.13;4469800;32;20134;-80
2022/10/21 23:04:21;;;;;;;9.82;5.90;;;;;;;22.92;44.01;99961.16;4469927;32;20096;-80
2022/10/21 23:06:47;;;;;;;11.25;6.07;;;;;;;22.90;43.79;99963.78;4469836;32;20393;-80
2022/10/21 23:09:12;;;;;;;11.25;5.80;;;;;;;22.88;43.73;99968.19;4455614;32;20096;-80
2022/10/21 23:11:38;;;;;;;10.02;5.72;;;;;;;22.87;43.76;99965.56;4469796;32;20073;-80
2022/10/21 23:14:03;;;;;;;9.32;5.72;;;;;;;22.87;44.01;99969.03;4469682;32;20104;-80
2022/10/21 23:16:30;;;;;;;8.43;6.05;;;;;;;22.86;43.72;99967.31;4469775;32;20150;-80
2022/10/21 23:18:55;;;;;;;8.90;5.78;;;;;;;22.86;43.98;99959.47;4455114;32;20454;-80
2022/10/21 23:21:21;;;;;;;11.55;6.18;;;;;;;22.85;43.77;99967.34;4469649;32;20111;-80
2022/10/21 23:23:46;;;;;;;8.63;6.03;;;;;;;22.83;43.82;99962.16;4455206;32;20157;-80
2022/10/21 23:26:12;;;;;;;11.05;6.25;;;;;;;22.84;44.02;99956.00;4464228;32;20093;-80
2022/10/21 23:28:37;;;;;;;8.55;5.95;;;;;;;22.82;43.87;99949.94;4454033;32;20339;-80
2022/10/21 23:31:03;;;;;;;7.75;4.87;;;;;;;22.83;43.94;99956.91;4439708;32;20115;-80
2022/10/21 23:33:28;;;;;;;10.00;5.43;;;;;;;22.83;43.94;99953.41;4453971;32;20460;-80
2022/10/21 23:35:54;;;;;;;7.72;5.28;;;;;;;22.84;43.73;99942.94;4453899;32;20093;-80
2022/10/21 23:38:19;;;;;;;6.50;4.90;;;;;;;22.83;43.85;99933.37;4452376;32;20084;-80
2022/10/21 23:40:45;;;;;;;8.95;5.35;;;;;;;22.83;43.83;99932.47;4453777;32;20422;-80
2022/10/21 23:43:10;;;;;;;7.57;5.18;;;;;;;22.81;43.86;99924.69;4439609;32;20105;-80
2022/10/21 23:45:35;;;;;;;10.30;5.35;;;;;;;22.78;43.84;99925.59;4453790;32;20094;-80
2022/10/21 23:48:01;;;;;;;9.18;5.22;;;;;;;22.77;43.97;99922.97;4453649;32;20116;-80
2022/10/21 23:50:27;;;;;;;9.23;5.30;;;;;;;22.78;43.84;99919.50;4453671;32;20081;-80
2022/10/21 23:52:53;;;;;;;8.65;5.22;;;;;;;22.78;43.95;99927.34;4453582;32;20147;-80
2022/10/21 23:55:18;;;;;;;7.32;5.10;;;;;;;22.78;43.75;99938.66;4439497;32;20166;-80
2022/10/21 23:57:44;;;;;;;9.20;5.62;;;;;;;22.79;43.89;99948.22;4452116;32;20194;-80
